sensor_id;sensor_type;location;lat;lon;timestamp;temperature;humidity
36856;DHT22;22788;51.434;6.786;2023-03-01T00:00:38;4.10;99.90
36856;DHT22;22788;51.434;6.786;2023-03-01T00:03:04;4.20;99.90
36856;DHT22;22788;51.434;6.786;2023-03-01T00:05:30;4.20;99.90
36856;DHT22;22788;51.434;6.786;2023-03-01T00:07:56;4.20;99.90
36856;DHT22;22788;51.434;6.786;2023-03-01T00:10:22;4.20;99.90
36856;DHT22;22788;51.434;6.786;2023-03-01T00:12:50;4.20;99.90
36856;DHT22;22788;51.434;6.786;2023-03-01T00:15:16;4.20;99.90
36856;DHT22;22788;51.434;6.786;2023-03-01T00:17:42;4.20;99.90
36856;DHT22;22788;51.434;6.786;2023-03-01T00:20:08;4.20;99.90
36856;DHT22;22788;51.434;6.786;2023-03-01T00:22:35;4.20;99.90
36856;DHT22;22788;51.434;6.786;2023-03-01T00:25:01;4.20;99.90
36856;DHT22;22788;51.434;6.786;2023-03-01T00:27:27;4.20;99.90
36856;DHT22;22788;51.434;6.786;2023-03-01T00:29:54;4.10;99.90
36856;DHT22;22788;51.434;6.786;2023-03-01T00:32:20;4.20;99.90
36856;DHT22;22788;51.434;6.786;2023-03-01T00:34:46;4.20;99.90
36856;DHT22;22788;51.434;6.786;2023-03-01T00:37:12;4.10;99.90
36856;DHT22;22788;51.434;6.786;2023-03-01T00:39:38;4.10;99.90
36856;DHT22;22788;51.434;6.786;2023-03-01T00:42:04;4.10;99.90
36856;DHT22;22788;51.434;6.786;2023-03-01T00:44:30;4.10;99.90
36856;DHT22;22788;51.434;6.786;2023-03-01T00:46:59;4.10;99.90
36856;DHT22;22788;51.434;6.786;2023-03-01T00:49:25;4.10;99.90
36856;DHT22;22788;51.434;6.786;2023-03-01T00:51:51;4.10;99.90
36856;DHT22;22788;51.434;6.786;2023-03-01T00:54:17;4.10;99.90
36856;DHT22;22788;51.434;6.786;2023-03-01T00:56:43;4.10;99.90
36856;DHT22;22788;51.434;6.786;2023-03-01T00:59:09;4.10;99.90
36856;DHT22;22788;51.434;6.786;2023-03-01T01:01:35;4.10;99.90
36856;DHT22;22788;51.434;6.786;2023-03-01T01:04:05;4.10;99.90
36856;DHT22;22788;51.434;6.786;2023-03-01T01:06:34;4.00;99.90
36856;DHT22;22788;51.434;6.786;2023-03-01T01:09:01;4.00;99.90
36856;DHT22;22788;51.434;6.786;2023-03-01T01:11:28;4.00;99.90
36856;DHT22;22788;51.434;6.786;2023-03-01T01:13:55;4.00;99.90
36856;DHT22;22788;51.434;6.786;2023-03-01T01:16:23;4.00;99.90
36856;DHT22;22788;51.434;6.786;2023-03-01T01:18:50;4.00;99.90
36856;DHT22;22788;51.434;6.786;2023-03-01T01:21:20;4.00;99.90
36856;DHT22;22788;51.434;6.786;2023-03-01T01:23:47;4.00;99.90
36856;DHT22;22788;51.434;6.786;2023-03-01T01:26:15;4.10;99.90
36856;DHT22;22788;51.434;6.786;2023-03-01T01:28:41;4.00;99.90
36856;DHT22;22788;51.434;6.786;2023-03-01T01:31:07;4.00;99.90
36856;DHT22;22788;51.434;6.786;2023-03-01T01:33:34;4.00;99.90
36856;DHT22;22788;51.434;6.786;2023-03-01T01:36:00;4.00;99.90
36856;DHT22;22788;51.434;6.786;2023-03-01T01:38:27;4.00;99.90
36856;DHT22;22788;51.434;6.786;2023-03-01T01:40:53;4.00;99.90
36856;DHT22;22788;51.434;6.786;2023-03-01T01:43:22;4.00;99.90
36856;DHT22;22788;51.434;6.786;2023-03-01T01:45:52;4.00;99.90
36856;DHT22;22788;51.434;6.786;2023-03-01T01:48:21;4.00;99.90
36856;DHT22;22788;51.434;6.786;2023-03-01T01:50:54;3.90;99.90
36856;DHT22;22788;51.434;6.786;2023-03-01T01:53:21;3.90;99.90
36856;DHT22;22788;51.434;6.786;2023-03-01T01:55:53;3.90;99.90
36856;DHT22;22788;51.434;6.786;2023-03-01T01:58:21;3.90;99.90
36856;DHT22;22788;51.434;6.786;2023-03-01T02:00:48;3.90;99.90
36856;DHT22;22788;51.434;6.786;2023-03-01T02:03:17;3.90;99.90
36856;DHT22;22788;51.434;6.786;2023-03-01T02:05:49;3.90;99.90
36856;DHT22;22788;51.434;6.786;2023-03-01T02:08:19;3.80;99.90
36856;DHT22;22788;51.434;6.786;2023-03-01T02:10:46;3.80;99.90
36856;DHT22;22788;51.434;6.786;2023-03-01T02:13:15;3.80;99.90
36856;DHT22;22788;51.434;6.786;2023-03-01T02:15:42;3.80;99.90
36856;DHT22;22788;51.434;6.786;2023-03-01T02:18:10;3.80;99.90
36856;DHT22;22788;51.434;6.786;2023-03-01T02:20:44;3.90;99.90
36856;DHT22;22788;51.434;6.786;2023-03-01T02:23:14;3.70;99.90
36856;DHT22;22788;51.434;6.786;2023-03-01T02:25:45;3.70;99.90
36856;DHT22;22788;51.434;6.786;2023-03-01T02:28:29;3.70;99.90
36856;DHT22;22788;51.434;6.786;2023-03-01T02:30:55;3.80;99.90
36856;DHT22;22788;51.434;6.786;2023-03-01T02:33:21;3.90;99.90
36856;DHT22;22788;51.434;6.786;2023-03-01T02:35:47;3.80;99.90
36856;DHT22;22788;51.434;6.786;2023-03-01T02:38:14;3.70;99.90
36856;DHT22;22788;51.434;6.786;2023-03-01T02:40:40;3.80;99.90
36856;DHT22;22788;51.434;6.786;2023-03-01T02:43:09;3.80;99.90
36856;DHT22;22788;51.434;6.786;2023-03-01T02:45:37;3.70;99.90
36856;DHT22;22788;51.434;6.786;2023-03-01T02:48:03;3.70;99.90
36856;DHT22;22788;51.434;6.786;2023-03-01T02:50:52;3.70;99.90
36856;DHT22;22788;51.434;6.786;2023-03-01T02:53:25;3.60;99.90
36856;DHT22;22788;51.434;6.786;2023-03-01T02:55:54;3.60;99.90
36856;DHT22;22788;51.434;6.786;2023-03-01T02:58:20;3.60;99.90
36856;DHT22;22788;51.434;6.786;2023-03-01T03:00:47;3.50;99.90
36856;DHT22;22788;51.434;6.786;2023-03-01T03:03:14;3.40;99.90
36856;DHT22;22788;51.434;6.786;2023-03-01T03:05:40;3.30;99.90
36856;DHT22;22788;51.434;6.786;2023-03-01T03:08:07;3.40;99.90
36856;DHT22;22788;51.434;6.786;2023-03-01T03:10:35;3.30;99.90
36856;DHT22;22788;51.434;6.786;2023-03-01T03:13:03;3.50;99.90
36856;DHT22;22788;51.434;6.786;2023-03-01T03:15:30;3.40;99.90
36856;DHT22;22788;51.434;6.786;2023-03-01T03:17:58;3.30;99.90
36856;DHT22;22788;51.434;6.786;2023-03-01T03:20:26;3.30;99.90
36856;DHT22;22788;51.434;6.786;2023-03-01T03:22:54;3.10;99.90
36856;DHT22;22788;51.434;6.786;2023-03-01T03:25:21;3.30;99.90
36856;DHT22;22788;51.434;6.786;2023-03-01T03:27:49;3.30;99.90
36856;DHT22;22788;51.434;6.786;2023-03-01T03:30:18;3.40;99.90
36856;DHT22;22788;51.434;6.786;2023-03-01T03:32:46;3.40;99.90
36856;DHT22;22788;51.434;6.786;2023-03-01T03:35:13;3.40;99.90
36856;DHT22;22788;51.434;6.786;2023-03-01T03:37:40;3.30;99.90
36856;DHT22;22788;51.434;6.786;2023-03-01T03:40:08;3.20;99.90
36856;DHT22;22788;51.434;6.786;2023-03-01T03:42:34;3.40;99.90
36856;DHT22;22788;51.434;6.786;2023-03-01T03:45:00;3.40;99.90
36856;DHT22;22788;51.434;6.786;2023-03-01T03:47:26;3.40;99.90
36856;DHT22;22788;51.434;6.786;2023-03-01T03:49:52;3.30;99.90
36856;DHT22;22788;51.434;6.786;2023-03-01T03:52:20;3.30;99.90
36856;DHT22;22788;51.434;6.786;2023-03-01T03:54:46;3.20;99.90
36856;DHT22;22788;51.434;6.786;2023-03-01T03:57:12;3.30;99.90
36856;DHT22;22788;51.434;6.786;2023-03-01T03:59:38;3.20;99.90
36856;DHT22;22788;51.434;6.786;2023-03-01T04:02:04;3.40;99.90
36856;DHT22;22788;51.434;6.786;2023-03-01T04:04:30;3.30;99.90
36856;DHT22;22788;51.434;6.786;2023-03-01T04:06:56;3.20;99.90
36856;DHT22;22788;51.434;6.786;2023-03-01T04:09:23;3.20;99.90
36856;DHT22;22788;51.434;6.786;2023-03-01T04:11:49;3.30;99.90
36856;DHT22;22788;51.434;6.786;2023-03-01T04:14:15;3.30;99.90
36856;DHT22;22788;51.434;6.786;2023-03-01T04:16:41;3.40;99.90
36856;DHT22;22788;51.434;6.786;2023-03-01T04:19:07;3.40;99.90
36856;DHT22;22788;51.434;6.786;2023-03-01T04:21:33;3.30;99.90
36856;DHT22;22788;51.434;6.786;2023-03-01T04:23:59;3.30;99.90
36856;DHT22;22788;51.434;6.786;2023-03-01T04:26:27;3.20;99.90
36856;DHT22;22788;51.434;6.786;2023-03-01T04:28:53;3.30;99.90
36856;DHT22;22788;51.434;6.786;2023-03-01T04:31:20;3.30;99.90
36856;DHT22;22788;51.434;6.786;2023-03-01T04:33:48;3.30;99.90
36856;DHT22;22788;51.434;6.786;2023-03-01T04:36:16;3.30;99.90
36856;DHT22;22788;51.434;6.786;2023-03-01T04:38:43;3.20;99.90
36856;DHT22;22788;51.434;6.786;2023-03-01T04:41:11;3.20;99.90
36856;DHT22;22788;51.434;6.786;2023-03-01T04:43:38;3.20;99.90
36856;DHT22;22788;51.434;6.786;2023-03-01T04:46:06;3.20;99.90
36856;DHT22;22788;51.434;6.786;2023-03-01T04:48:32;3.20;99.90
36856;DHT22;22788;51.434;6.786;2023-03-01T04:50:59;3.30;99.90
36856;DHT22;22788;51.434;6.786;2023-03-01T04:53:26;3.30;99.90
36856;DHT22;22788;51.434;6.786;2023-03-01T04:55:53;3.40;99.90
36856;DHT22;22788;51.434;6.786;2023-03-01T04:58:19;3.30;99.90
36856;DHT22;22788;51.434;6.786;2023-03-01T05:00:46;3.30;99.90
36856;DHT22;22788;51.434;6.786;2023-03-01T05:03:12;3.30;99.90
36856;DHT22;22788;51.434;6.786;2023-03-01T05:05:39;3.30;99.90
36856;DHT22;22788;51.434;6.786;2023-03-01T05:08:07;3.30;99.90
36856;DHT22;22788;51.434;6.786;2023-03-01T05:10:35;3.30;99.90
36856;DHT22;22788;51.434;6.786;2023-03-01T05:13:02;3.30;99.90
36856;DHT22;22788;51.434;6.786;2023-03-01T05:15:30;3.20;99.90
36856;DHT22;22788;51.434;6.786;2023-03-01T05:17:59;3.20;99.90
36856;DHT22;22788;51.434;6.786;2023-03-01T05:20:25;3.30;99.90
36856;DHT22;22788;51.434;6.786;2023-03-01T05:22:55;3.30;99.90
36856;DHT22;22788;51.434;6.786;2023-03-01T05:25:21;3.20;99.90
36856;DHT22;22788;51.434;6.786;2023-03-01T05:27:48;3.20;99.90
36856;DHT22;22788;51.434;6.786;2023-03-01T05:30:15;3.30;99.90
36856;DHT22;22788;51.434;6.786;2023-03-01T05:32:42;3.30;99.90
36856;DHT22;22788;51.434;6.786;2023-03-01T05:35:10;3.30;99.90
36856;DHT22;22788;51.434;6.786;2023-03-01T05:37:36;3.10;99.90
36856;DHT22;22788;51.434;6.786;2023-03-01T05:40:03;3.00;99.90
36856;DHT22;22788;51.434;6.786;2023-03-01T05:42:29;3.10;99.90
36856;DHT22;22788;51.434;6.786;2023-03-01T05:44:55;3.00;99.90
36856;DHT22;22788;51.434;6.786;2023-03-01T05:47:21;2.90;99.90
36856;DHT22;22788;51.434;6.786;2023-03-01T05:49:47;2.90;99.90
36856;DHT22;22788;51.434;6.786;2023-03-01T05:52:14;3.10;99.90
36856;DHT22;22788;51.434;6.786;2023-03-01T05:54:40;3.20;99.90
36856;DHT22;22788;51.434;6.786;2023-03-01T05:57:06;3.10;99.90
36856;DHT22;22788;51.434;6.786;2023-03-01T05:59:33;3.00;99.90
36856;DHT22;22788;51.434;6.786;2023-03-01T06:01:59;2.90;99.90
36856;DHT22;22788;51.434;6.786;2023-03-01T06:04:25;3.00;99.90
36856;DHT22;22788;51.434;6.786;2023-03-01T06:06:51;3.20;99.90
36856;DHT22;22788;51.434;6.786;2023-03-01T06:09:18;3.10;99.90
36856;DHT22;22788;51.434;6.786;2023-03-01T06:11:44;3.00;99.90
36856;DHT22;22788;51.434;6.786;2023-03-01T06:14:10;3.00;99.90
36856;DHT22;22788;51.434;6.786;2023-03-01T06:16:36;3.00;99.90
36856;DHT22;22788;51.434;6.786;2023-03-01T06:19:02;3.00;99.90
36856;DHT22;22788;51.434;6.786;2023-03-01T06:21:28;2.90;99.90
36856;DHT22;22788;51.434;6.786;2023-03-01T06:23:54;3.00;99.90
36856;DHT22;22788;51.434;6.786;2023-03-01T06:26:22;3.00;99.90
36856;DHT22;22788;51.434;6.786;2023-03-01T06:28:48;2.90;99.90
36856;DHT22;22788;51.434;6.786;2023-03-01T06:31:14;3.00;99.90
36856;DHT22;22788;51.434;6.786;2023-03-01T06:33:40;3.10;99.90
36856;DHT22;22788;51.434;6.786;2023-03-01T06:36:07;2.90;99.90
36856;DHT22;22788;51.434;6.786;2023-03-01T06:38:34;2.80;99.90
36856;DHT22;22788;51.434;6.786;2023-03-01T06:41:00;2.80;99.90
36856;DHT22;22788;51.434;6.786;2023-03-01T06:43:27;2.80;99.90
36856;DHT22;22788;51.434;6.786;2023-03-01T06:45:53;2.90;99.90
36856;DHT22;22788;51.434;6.786;2023-03-01T06:48:19;2.90;99.90
36856;DHT22;22788;51.434;6.786;2023-03-01T06:50:45;2.80;99.90
36856;DHT22;22788;51.434;6.786;2023-03-01T06:53:11;2.80;99.90
36856;DHT22;22788;51.434;6.786;2023-03-01T06:55:37;2.90;99.90
36856;DHT22;22788;51.434;6.786;2023-03-01T06:58:03;2.90;99.90
36856;DHT22;22788;51.434;6.786;2023-03-01T07:00:31;3.00;99.90
36856;DHT22;22788;51.434;6.786;2023-03-01T07:05:25;2.90;99.90
36856;DHT22;22788;51.434;6.786;2023-03-01T07:07:51;2.90;99.90
36856;DHT22;22788;51.434;6.786;2023-03-01T07:10:18;2.80;99.90
36856;DHT22;22788;51.434;6.786;2023-03-01T07:12:44;2.80;99.90
36856;DHT22;22788;51.434;6.786;2023-03-01T07:15:10;2.80;99.90
36856;DHT22;22788;51.434;6.786;2023-03-01T07:17:38;2.60;99.90
36856;DHT22;22788;51.434;6.786;2023-03-01T07:20:05;2.60;99.90
36856;DHT22;22788;51.434;6.786;2023-03-01T07:22:31;2.70;99.90
36856;DHT22;22788;51.434;6.786;2023-03-01T07:24:57;2.80;99.90
36856;DHT22;22788;51.434;6.786;2023-03-01T07:27:23;2.60;99.90
36856;DHT22;22788;51.434;6.786;2023-03-01T07:29:49;2.40;99.90
36856;DHT22;22788;51.434;6.786;2023-03-01T07:32:15;2.60;99.90
36856;DHT22;22788;51.434;6.786;2023-03-01T07:34:42;2.60;99.90
36856;DHT22;22788;51.434;6.786;2023-03-01T07:37:08;2.70;99.90
36856;DHT22;22788;51.434;6.786;2023-03-01T07:39:34;2.80;99.90
36856;DHT22;22788;51.434;6.786;2023-03-01T07:42:00;2.70;99.90
36856;DHT22;22788;51.434;6.786;2023-03-01T07:44:26;2.50;99.90
36856;DHT22;22788;51.434;6.786;2023-03-01T07:46:52;2.50;99.90
36856;DHT22;22788;51.434;6.786;2023-03-01T07:49:18;2.50;99.90
36856;DHT22;22788;51.434;6.786;2023-03-01T07:51:46;2.70;99.90
36856;DHT22;22788;51.434;6.786;2023-03-01T07:54:12;2.70;99.90
36856;DHT22;22788;51.434;6.786;2023-03-01T07:56:38;2.80;99.90
36856;DHT22;22788;51.434;6.786;2023-03-01T07:59:04;2.80;99.90
36856;DHT22;22788;51.434;6.786;2023-03-01T08:01:30;2.80;99.90
36856;DHT22;22788;51.434;6.786;2023-03-01T08:03:56;2.90;99.90
36856;DHT22;22788;51.434;6.786;2023-03-01T08:06:22;2.90;99.90
36856;DHT22;22788;51.434;6.786;2023-03-01T08:08:49;2.80;99.90
36856;DHT22;22788;51.434;6.786;2023-03-01T08:11:15;2.80;99.90
36856;DHT22;22788;51.434;6.786;2023-03-01T08:13:42;2.90;99.90
36856;DHT22;22788;51.434;6.786;2023-03-01T08:16:11;2.90;99.90
36856;DHT22;22788;51.434;6.786;2023-03-01T08:18:37;3.00;99.90
36856;DHT22;22788;51.434;6.786;2023-03-01T08:21:04;2.90;99.90
36856;DHT22;22788;51.434;6.786;2023-03-01T08:23:30;2.90;99.90
36856;DHT22;22788;51.434;6.786;2023-03-01T08:26:05;2.80;99.90
36856;DHT22;22788;51.434;6.786;2023-03-01T08:28:31;2.90;99.90
36856;DHT22;22788;51.434;6.786;2023-03-01T08:30:57;2.90;99.90
36856;DHT22;22788;51.434;6.786;2023-03-01T08:33:23;2.90;99.90
36856;DHT22;22788;51.434;6.786;2023-03-01T08:35:49;2.80;99.90
36856;DHT22;22788;51.434;6.786;2023-03-01T08:38:15;2.80;99.90
36856;DHT22;22788;51.434;6.786;2023-03-01T08:40:41;2.90;99.90
36856;DHT22;22788;51.434;6.786;2023-03-01T08:43:08;3.00;99.90
36856;DHT22;22788;51.434;6.786;2023-03-01T08:45:34;2.80;99.90
36856;DHT22;22788;51.434;6.786;2023-03-01T08:48:00;2.70;99.90
36856;DHT22;22788;51.434;6.786;2023-03-01T08:50:26;3.00;99.90
36856;DHT22;22788;51.434;6.786;2023-03-01T08:52:52;3.00;99.90
36856;DHT22;22788;51.434;6.786;2023-03-01T08:55:18;2.90;99.90
36856;DHT22;22788;51.434;6.786;2023-03-01T08:57:44;3.00;99.90
36856;DHT22;22788;51.434;6.786;2023-03-01T09:00:13;3.10;99.90
36856;DHT22;22788;51.434;6.786;2023-03-01T09:02:39;3.10;99.90
36856;DHT22;22788;51.434;6.786;2023-03-01T09:05:05;2.90;99.90
36856;DHT22;22788;51.434;6.786;2023-03-01T09:07:31;3.10;99.90
36856;DHT22;22788;51.434;6.786;2023-03-01T09:09:57;3.00;99.90
36856;DHT22;22788;51.434;6.786;2023-03-01T09:12:23;3.20;99.90
36856;DHT22;22788;51.434;6.786;2023-03-01T09:14:49;3.20;99.90
36856;DHT22;22788;51.434;6.786;2023-03-01T09:17:17;3.10;99.90
36856;DHT22;22788;51.434;6.786;2023-03-01T09:19:43;3.10;99.90
36856;DHT22;22788;51.434;6.786;2023-03-01T09:22:09;3.10;99.90
36856;DHT22;22788;51.434;6.786;2023-03-01T09:24:35;3.20;99.90
36856;DHT22;22788;51.434;6.786;2023-03-01T09:27:01;3.20;99.90
36856;DHT22;22788;51.434;6.786;2023-03-01T09:29:27;3.10;99.90
36856;DHT22;22788;51.434;6.786;2023-03-01T09:31:53;3.00;99.90
36856;DHT22;22788;51.434;6.786;2023-03-01T09:34:20;3.00;99.90
36856;DHT22;22788;51.434;6.786;2023-03-01T09:36:46;3.20;99.90
36856;DHT22;22788;51.434;6.786;2023-03-01T09:39:12;3.30;99.90
36856;DHT22;22788;51.434;6.786;2023-03-01T09:41:46;3.20;99.90
36856;DHT22;22788;51.434;6.786;2023-03-01T09:44:25;3.20;99.90
36856;DHT22;22788;51.434;6.786;2023-03-01T09:46:53;3.20;99.90
36856;DHT22;22788;51.434;6.786;2023-03-01T09:49:23;3.30;99.90
36856;DHT22;22788;51.434;6.786;2023-03-01T09:51:57;3.40;99.90
36856;DHT22;22788;51.434;6.786;2023-03-01T09:54:24;3.40;99.90
36856;DHT22;22788;51.434;6.786;2023-03-01T09:57:05;3.40;99.90
36856;DHT22;22788;51.434;6.786;2023-03-01T09:59:40;3.40;99.90
36856;DHT22;22788;51.434;6.786;2023-03-01T10:02:21;3.30;99.90
36856;DHT22;22788;51.434;6.786;2023-03-01T10:04:50;3.40;99.90
36856;DHT22;22788;51.434;6.786;2023-03-01T10:07:26;3.40;99.90
36856;DHT22;22788;51.434;6.786;2023-03-01T10:09:52;3.40;99.90
36856;DHT22;22788;51.434;6.786;2023-03-01T10:12:22;3.50;99.90
36856;DHT22;22788;51.434;6.786;2023-03-01T10:14:56;3.50;99.90
36856;DHT22;22788;51.434;6.786;2023-03-01T10:17:32;3.50;99.90
36856;DHT22;22788;51.434;6.786;2023-03-01T10:20:14;3.50;99.90
36856;DHT22;22788;51.434;6.786;2023-03-01T10:22:41;3.60;99.90
36856;DHT22;22788;51.434;6.786;2023-03-01T10:25:13;3.60;99.90
36856;DHT22;22788;51.434;6.786;2023-03-01T10:27:45;3.50;99.90
36856;DHT22;22788;51.434;6.786;2023-03-01T10:30:17;3.60;99.90
36856;DHT22;22788;51.434;6.786;2023-03-01T10:32:45;3.50;99.90
36856;DHT22;22788;51.434;6.786;2023-03-01T10:35:18;3.70;99.90
36856;DHT22;22788;51.434;6.786;2023-03-01T10:37:59;3.70;99.90
36856;DHT22;22788;51.434;6.786;2023-03-01T10:40:28;3.70;99.90
36856;DHT22;22788;51.434;6.786;2023-03-01T10:42:57;3.80;99.90
36856;DHT22;22788;51.434;6.786;2023-03-01T10:45:31;3.80;99.90
36856;DHT22;22788;51.434;6.786;2023-03-01T10:48:05;3.70;99.90
36856;DHT22;22788;51.434;6.786;2023-03-01T10:50:33;3.80;99.90
36856;DHT22;22788;51.434;6.786;2023-03-01T10:53:01;3.80;99.90
36856;DHT22;22788;51.434;6.786;2023-03-01T10:55:31;3.80;99.90
36856;DHT22;22788;51.434;6.786;2023-03-01T10:58:16;3.70;99.90
36856;DHT22;22788;51.434;6.786;2023-03-01T11:00:48;3.80;99.90
36856;DHT22;22788;51.434;6.786;2023-03-01T11:03:18;3.80;99.90
36856;DHT22;22788;51.434;6.786;2023-03-01T11:06:04;3.90;99.90
36856;DHT22;22788;51.434;6.786;2023-03-01T11:08:39;3.90;99.90
36856;DHT22;22788;51.434;6.786;2023-03-01T11:13:57;3.90;99.90
36856;DHT22;22788;51.434;6.786;2023-03-01T11:16:32;4.00;99.90
36856;DHT22;22788;51.434;6.786;2023-03-01T11:19:16;4.00;99.90
36856;DHT22;22788;51.434;6.786;2023-03-01T11:21:51;4.00;99.90
36856;DHT22;22788;51.434;6.786;2023-03-01T11:24:19;4.10;99.90
36856;DHT22;22788;51.434;6.786;2023-03-01T11:26:50;4.00;99.90
36856;DHT22;22788;51.434;6.786;2023-03-01T11:29:25;4.10;99.90
36856;DHT22;22788;51.434;6.786;2023-03-01T11:31:55;4.10;99.90
36856;DHT22;22788;51.434;6.786;2023-03-01T11:34:34;4.10;99.90
36856;DHT22;22788;51.434;6.786;2023-03-01T11:37:24;4.10;99.90
36856;DHT22;22788;51.434;6.786;2023-03-01T11:39:57;4.10;99.90
36856;DHT22;22788;51.434;6.786;2023-03-01T11:42:30;4.20;99.90
36856;DHT22;22788;51.434;6.786;2023-03-01T11:45:00;4.20;99.90
36856;DHT22;22788;51.434;6.786;2023-03-01T11:47:38;4.20;99.90
36856;DHT22;22788;51.434;6.786;2023-03-01T11:50:17;4.20;99.90
36856;DHT22;22788;51.434;6.786;2023-03-01T11:53:04;4.10;99.90
36856;DHT22;22788;51.434;6.786;2023-03-01T11:55:45;4.10;99.90
36856;DHT22;22788;51.434;6.786;2023-03-01T11:58:26;4.30;99.90
36856;DHT22;22788;51.434;6.786;2023-03-01T12:01:02;4.30;99.90
36856;DHT22;22788;51.434;6.786;2023-03-01T12:03:45;4.30;99.90
36856;DHT22;22788;51.434;6.786;2023-03-01T12:06:28;4.30;99.90
36856;DHT22;22788;51.434;6.786;2023-03-01T12:09:14;4.30;99.90
36856;DHT22;22788;51.434;6.786;2023-03-01T12:12:06;4.40;99.90
36856;DHT22;22788;51.434;6.786;2023-03-01T12:14:54;4.30;99.90
36856;DHT22;22788;51.434;6.786;2023-03-01T12:17:29;4.30;99.20
36856;DHT22;22788;51.434;6.786;2023-03-01T12:20:11;4.40;99.90
36856;DHT22;22788;51.434;6.786;2023-03-01T12:22:52;4.40;99.40
36856;DHT22;22788;51.434;6.786;2023-03-01T12:25:28;4.40;99.90
36856;DHT22;22788;51.434;6.786;2023-03-01T12:28:08;4.40;99.80
36856;DHT22;22788;51.434;6.786;2023-03-01T12:33:22;4.50;99.90
36856;DHT22;22788;51.434;6.786;2023-03-01T12:35:59;4.50;99.90
36856;DHT22;22788;51.434;6.786;2023-03-01T12:38:33;4.50;99.90
36856;DHT22;22788;51.434;6.786;2023-03-01T12:41:27;4.60;99.90
36856;DHT22;22788;51.434;6.786;2023-03-01T12:44:04;4.60;99.90
36856;DHT22;22788;51.434;6.786;2023-03-01T12:46:46;4.60;99.90
36856;DHT22;22788;51.434;6.786;2023-03-01T12:49:15;4.50;99.90
36856;DHT22;22788;51.434;6.786;2023-03-01T12:51:46;4.50;99.90
36856;DHT22;22788;51.434;6.786;2023-03-01T12:54:19;4.50;99.90
36856;DHT22;22788;51.434;6.786;2023-03-01T12:56:48;4.60;99.90
36856;DHT22;22788;51.434;6.786;2023-03-01T12:59:19;4.70;99.90
36856;DHT22;22788;51.434;6.786;2023-03-01T13:01:53;4.60;99.00
36856;DHT22;22788;51.434;6.786;2023-03-01T13:04:29;4.60;99.90
36856;DHT22;22788;51.434;6.786;2023-03-01T13:07:09;4.70;99.50
36856;DHT22;22788;51.434;6.786;2023-03-01T13:09:41;4.70;98.50
36856;DHT22;22788;51.434;6.786;2023-03-01T13:12:46;4.90;99.90
36856;DHT22;22788;51.434;6.786;2023-03-01T13:15:27;4.90;99.90
36856;DHT22;22788;51.434;6.786;2023-03-01T13:17:54;4.90;97.60
36856;DHT22;22788;51.434;6.786;2023-03-01T13:20:24;4.90;99.90
36856;DHT22;22788;51.434;6.786;2023-03-01T13:23:02;4.80;99.70
36856;DHT22;22788;51.434;6.786;2023-03-01T13:25:29;4.90;99.90
36856;DHT22;22788;51.434;6.786;2023-03-01T13:28:42;4.90;99.90
36856;DHT22;22788;51.434;6.786;2023-03-01T13:34:58;4.90;99.90
36856;DHT22;22788;51.434;6.786;2023-03-01T13:37:29;4.80;99.90
36856;DHT22;22788;51.434;6.786;2023-03-01T13:40:04;4.80;99.90
36856;DHT22;22788;51.434;6.786;2023-03-01T13:42:34;4.80;99.90
36856;DHT22;22788;51.434;6.786;2023-03-01T13:45:03;4.80;99.90
36856;DHT22;22788;51.434;6.786;2023-03-01T13:47:30;4.80;99.90
36856;DHT22;22788;51.434;6.786;2023-03-01T13:50:00;4.80;99.90
36856;DHT22;22788;51.434;6.786;2023-03-01T13:52:39;4.80;99.90
36856;DHT22;22788;51.434;6.786;2023-03-01T13:55:16;4.80;99.90
36856;DHT22;22788;51.434;6.786;2023-03-01T13:57:46;4.90;99.90
36856;DHT22;22788;51.434;6.786;2023-03-01T14:00:28;4.90;99.90
36856;DHT22;22788;51.434;6.786;2023-03-01T14:03:13;4.90;99.90
36856;DHT22;22788;51.434;6.786;2023-03-01T14:05:41;4.90;99.20
36856;DHT22;22788;51.434;6.786;2023-03-01T14:08:20;4.90;99.90
36856;DHT22;22788;51.434;6.786;2023-03-01T14:10:54;4.90;98.60
36856;DHT22;22788;51.434;6.786;2023-03-01T14:13:32;4.90;99.90
36856;DHT22;22788;51.434;6.786;2023-03-01T14:16:15;5.00;98.70
36856;DHT22;22788;51.434;6.786;2023-03-01T14:18:48;5.10;99.90
36856;DHT22;22788;51.434;6.786;2023-03-01T14:21:19;5.10;99.90
36856;DHT22;22788;51.434;6.786;2023-03-01T14:23:46;5.00;99.90
36856;DHT22;22788;51.434;6.786;2023-03-01T14:26:12;5.10;99.50
36856;DHT22;22788;51.434;6.786;2023-03-01T14:28:39;5.10;99.90
36856;DHT22;22788;51.434;6.786;2023-03-01T14:31:32;5.00;99.90
36856;DHT22;22788;51.434;6.786;2023-03-01T14:33:58;5.00;99.90
36856;DHT22;22788;51.434;6.786;2023-03-01T14:36:27;5.00;99.90
36856;DHT22;22788;51.434;6.786;2023-03-01T14:38:53;5.00;99.90
36856;DHT22;22788;51.434;6.786;2023-03-01T14:41:21;5.00;99.90
36856;DHT22;22788;51.434;6.786;2023-03-01T14:43:51;5.00;99.90
36856;DHT22;22788;51.434;6.786;2023-03-01T14:46:20;5.00;99.90
36856;DHT22;22788;51.434;6.786;2023-03-01T14:48:50;5.10;99.90
36856;DHT22;22788;51.434;6.786;2023-03-01T14:51:16;5.00;99.90
36856;DHT22;22788;51.434;6.786;2023-03-01T14:53:42;5.00;98.70
36856;DHT22;22788;51.434;6.786;2023-03-01T14:56:14;5.10;99.90
36856;DHT22;22788;51.434;6.786;2023-03-01T14:58:41;5.10;99.90
36856;DHT22;22788;51.434;6.786;2023-03-01T15:01:10;5.10;99.50
36856;DHT22;22788;51.434;6.786;2023-03-01T15:03:42;5.20;99.90
36856;DHT22;22788;51.434;6.786;2023-03-01T15:06:11;5.10;99.90
36856;DHT22;22788;51.434;6.786;2023-03-01T15:08:42;5.00;99.90
36856;DHT22;22788;51.434;6.786;2023-03-01T15:11:19;5.10;99.90
36856;DHT22;22788;51.434;6.786;2023-03-01T15:13:46;5.00;99.90
36856;DHT22;22788;51.434;6.786;2023-03-01T15:16:13;5.10;99.90
36856;DHT22;22788;51.434;6.786;2023-03-01T15:18:43;5.10;98.90
36856;DHT22;22788;51.434;6.786;2023-03-01T15:21:17;5.20;99.90
36856;DHT22;22788;51.434;6.786;2023-03-01T15:23:49;5.20;99.90
36856;DHT22;22788;51.434;6.786;2023-03-01T15:26:23;5.10;99.70
36856;DHT22;22788;51.434;6.786;2023-03-01T15:28:52;6.00;99.90
36856;DHT22;22788;51.434;6.786;2023-03-01T15:31:20;5.10;99.90
36856;DHT22;22788;51.434;6.786;2023-03-01T15:33:47;5.10;99.90
36856;DHT22;22788;51.434;6.786;2023-03-01T15:36:41;5.10;99.90
36856;DHT22;22788;51.434;6.786;2023-03-01T15:39:28;5.10;99.90
36856;DHT22;22788;51.434;6.786;2023-03-01T15:41:56;5.10;99.90
36856;DHT22;22788;51.434;6.786;2023-03-01T15:44:26;5.20;99.90
36856;DHT22;22788;51.434;6.786;2023-03-01T15:46:53;5.20;99.90
36856;DHT22;22788;51.434;6.786;2023-03-01T15:54:23;5.20;98.80
36856;DHT22;22788;51.434;6.786;2023-03-01T15:56:49;5.30;99.60
36856;DHT22;22788;51.434;6.786;2023-03-01T15:59:16;5.30;99.90
36856;DHT22;22788;51.434;6.786;2023-03-01T16:01:42;5.20;99.90
36856;DHT22;22788;51.434;6.786;2023-03-01T16:04:09;5.20;99.90
36856;DHT22;22788;51.434;6.786;2023-03-01T16:06:35;5.20;99.90
36856;DHT22;22788;51.434;6.786;2023-03-01T16:09:03;5.20;99.90
36856;DHT22;22788;51.434;6.786;2023-03-01T16:11:29;5.30;99.90
36856;DHT22;22788;51.434;6.786;2023-03-01T16:13:55;5.20;99.90
36856;DHT22;22788;51.434;6.786;2023-03-01T16:16:21;5.20;99.90